createdAt,value
2022-11-25T00:01:20.993Z,3.83
2022-11-25T00:03:48.203Z,3.53
2022-11-25T00:06:20.248Z,3.20
2022-11-25T00:08:50.332Z,2.80
2022-11-25T00:11:18.143Z,4.03
2022-11-25T00:13:46.031Z,4.77
2022-11-25T00:16:15.644Z,3.73
2022-11-25T00:18:53.222Z,4.80
2022-11-25T00:21:23.199Z,3.63
2022-11-25T00:23:57.657Z,3.13
2022-11-25T00:26:25.545Z,3.23
2022-11-25T00:28:52.961Z,4.13
2022-11-25T00:31:22.296Z,5.03
2022-11-25T00:33:49.860Z,3.40
2022-11-25T00:36:34.239Z,2.17
2022-11-25T00:39:05.484Z,1.30
2022-11-25T00:41:50.861Z,4.37
2022-11-25T00:44:41.445Z,1.77
2022-11-25T00:47:13.516Z,4.00
2022-11-25T00:49:41.799Z,3.07
2022-11-25T00:52:09.726Z,1.57
2022-11-25T00:54:36.488Z,2.30
2022-11-25T00:57:06.404Z,2.10
2022-11-25T00:59:32.972Z,5.23
2022-11-25T01:02:00.198Z,1.57
2022-11-25T01:04:26.934Z,1.77
2022-11-25T01:06:59.732Z,2.10
2022-11-25T01:09:27.424Z,2.37
2022-11-25T01:11:54.067Z,2.67
2022-11-25T01:14:21.595Z,2.97
2022-11-25T01:16:49.541Z,3.70
2022-11-25T01:19:17.512Z,2.20
2022-11-25T01:21:44.170Z,1.50
2022-11-25T01:24:14.607Z,1.50
2022-11-25T01:26:42.049Z,2.10
2022-11-25T01:29:17.175Z,5.17
2022-11-25T01:31:44.763Z,4.63
2022-11-25T01:34:15.095Z,5.03
2022-11-25T01:36:41.895Z,1.97
2022-11-25T01:39:11.183Z,3.80
2022-11-25T01:41:37.757Z,2.80
2022-11-25T01:44:04.628Z,3.40
2022-11-25T01:47:05.554Z,3.17
2022-11-25T01:49:40.936Z,2.53
2022-11-25T01:52:28.288Z,2.97
2022-11-25T01:55:04.653Z,1.83
2022-11-25T01:57:37.915Z,4.97
2022-11-25T02:00:06.219Z,5.27
2022-11-25T02:02:35.853Z,2.30
2022-11-25T02:05:07.915Z,1.47
2022-11-25T02:07:43.261Z,2.80
2022-11-25T02:10:17.975Z,6.00
2022-11-25T02:12:46.326Z,1.90
2022-11-25T02:15:14.230Z,1.43
2022-11-25T02:17:42.276Z,2.70
2022-11-25T02:20:10.489Z,3.17
2022-11-25T02:22:52.000Z,1.83
2022-11-25T02:25:22.370Z,3.00
2022-11-25T02:27:54.015Z,1.70
2022-11-25T02:30:21.017Z,2.80
2022-11-25T02:32:48.309Z,1.63
2022-11-25T02:35:38.910Z,1.57
2022-11-25T02:38:09.617Z,2.40
2022-11-25T02:40:50.071Z,2.60
2022-11-25T02:43:17.808Z,2.83
2022-11-25T02:45:53.017Z,1.80
2022-11-25T02:48:19.759Z,2.47
2022-11-25T02:50:46.554Z,2.13
2022-11-25T02:53:13.374Z,2.60
2022-11-25T02:55:40.107Z,2.40
2022-11-25T02:58:07.236Z,2.13
2022-11-25T03:00:33.847Z,2.20
2022-11-25T03:03:00.712Z,6.20
2022-11-25T03:05:27.612Z,15.20
2022-11-25T03:07:54.194Z,6.17
2022-11-25T03:10:21.716Z,2.00
2022-11-25T03:12:48.645Z,2.03
2022-11-25T03:15:15.720Z,2.40
2022-11-25T03:17:42.405Z,3.27
2022-11-25T03:20:09.892Z,2.10
2022-11-25T03:22:36.512Z,3.10
2022-11-25T03:25:03.275Z,6.23
2022-11-25T03:27:30.512Z,2.43
2022-11-25T03:29:57.211Z,1.97
2022-11-25T03:32:23.728Z,2.80
2022-11-25T03:34:50.287Z,4.50
2022-11-25T03:37:16.975Z,2.60
2022-11-25T03:39:43.617Z,4.73
2022-11-25T03:42:10.207Z,4.93
2022-11-25T03:44:37.044Z,1.57
2022-11-25T03:47:04.196Z,3.70
2022-11-25T03:49:30.803Z,1.50
2022-11-25T03:51:57.774Z,1.67
2022-11-25T03:54:24.582Z,1.97
2022-11-25T03:56:51.211Z,2.60
2022-11-25T03:59:17.809Z,4.63
2022-11-25T04:01:44.769Z,1.90
2022-11-25T04:04:11.524Z,2.30
2022-11-25T04:06:39.285Z,4.03
2022-11-25T04:09:07.672Z,2.83
2022-11-25T04:11:53.099Z,2.30
2022-11-25T04:14:19.896Z,1.43
2022-11-25T04:16:46.473Z,3.90
2022-11-25T04:19:13.023Z,3.80
2022-11-25T04:21:40.941Z,3.30
2022-11-25T04:24:10.366Z,1.77
2022-11-25T04:26:37.009Z,1.70
2022-11-25T04:29:03.819Z,2.60
2022-11-25T04:31:30.484Z,2.40
2022-11-25T04:33:57.024Z,1.20
2022-11-25T04:36:23.956Z,2.87
2022-11-25T04:38:50.688Z,1.57
2022-11-25T04:41:17.417Z,4.13
2022-11-25T04:43:43.951Z,1.20
2022-11-25T04:46:17.548Z,1.23
2022-11-25T04:48:47.453Z,2.67
2022-11-25T04:51:14.240Z,1.70
2022-11-25T04:53:40.837Z,1.50
2022-11-25T04:56:07.647Z,4.60
2022-11-25T04:58:52.733Z,2.90
2022-11-25T05:01:19.476Z,1.37
2022-11-25T05:03:54.464Z,2.80
2022-11-25T05:06:24.342Z,2.57
2022-11-25T05:08:51.424Z,3.23
2022-11-25T05:11:18.067Z,2.60
2022-11-25T05:13:44.692Z,2.20
2022-11-25T05:16:11.725Z,2.70
2022-11-25T05:18:38.304Z,1.37
2022-11-25T05:21:05.444Z,2.57
2022-11-25T05:23:32.092Z,1.43
2022-11-25T05:26:00.811Z,1.73
2022-11-25T05:28:28.199Z,1.30
2022-11-25T05:30:55.348Z,2.10
2022-11-25T05:33:22.140Z,2.30
2022-11-25T05:36:15.277Z,1.53
2022-11-25T05:38:41.919Z,1.80
2022-11-25T05:41:08.494Z,2.53
2022-11-25T05:43:35.121Z,2.30
2022-11-25T05:46:07.809Z,0.67
2022-11-25T05:48:34.760Z,1.60
2022-11-25T05:51:03.144Z,1.53
2022-11-25T05:53:30.466Z,1.43
2022-11-25T05:56:00.446Z,2.10
2022-11-25T05:58:28.921Z,0.93
2022-11-25T06:00:56.054Z,1.77
2022-11-25T06:03:26.825Z,1.73
2022-11-25T06:05:55.362Z,3.37
2022-11-25T06:08:22.003Z,1.33
2022-11-25T06:10:49.022Z,1.90
2022-11-25T06:13:15.612Z,1.17
2022-11-25T06:15:44.342Z,1.23
2022-11-25T06:18:12.580Z,4.20
2022-11-25T06:20:39.825Z,1.33
2022-11-25T06:23:07.292Z,0.93
2022-11-25T06:25:34.724Z,5.90
2022-11-25T06:28:12.784Z,1.53
2022-11-25T06:30:39.846Z,2.40
2022-11-25T06:33:06.382Z,1.20
2022-11-25T06:35:32.938Z,1.40
2022-11-25T06:37:59.981Z,3.67
2022-11-25T06:40:26.516Z,2.97
2022-11-25T06:42:53.069Z,1.60
2022-11-25T06:45:19.665Z,1.03
2022-11-25T06:47:46.303Z,1.23
2022-11-25T06:50:13.294Z,1.43
2022-11-25T06:52:39.832Z,3.17
2022-11-25T06:55:06.820Z,1.23
2022-11-25T06:57:33.376Z,2.43
2022-11-25T06:59:59.972Z,1.00
2022-11-25T07:02:26.611Z,2.40
2022-11-25T07:04:53.716Z,5.17
2022-11-25T07:07:20.387Z,2.10
2022-11-25T07:09:47.454Z,2.10
2022-11-25T07:12:13.991Z,2.30
2022-11-25T07:14:40.531Z,4.70
2022-11-25T07:17:11.741Z,1.00
2022-11-25T07:19:40.254Z,2.70
2022-11-25T07:22:07.190Z,1.03
2022-11-25T07:24:34.377Z,1.67
2022-11-25T07:27:01.159Z,1.30
2022-11-25T07:29:54.138Z,1.80
2022-11-25T07:32:15.095Z,1.70
2022-11-25T07:34:41.730Z,2.37
2022-11-25T07:37:08.346Z,3.47
2022-11-25T07:39:35.363Z,1.87
2022-11-25T07:42:02.520Z,1.53
2022-11-25T07:44:29.080Z,2.50
2022-11-25T07:46:55.699Z,3.90
2022-11-25T07:49:25.291Z,2.07
2022-11-25T07:51:54.820Z,2.30
2022-11-25T07:54:22.369Z,3.60
2022-11-25T07:56:50.638Z,1.83
2022-11-25T07:59:20.458Z,1.23
2022-11-25T08:01:49.253Z,2.57
2022-11-25T08:04:20.219Z,1.30
2022-11-25T08:06:50.100Z,2.87
2022-11-25T08:09:19.213Z,4.57
2022-11-25T08:11:46.741Z,2.23
2022-11-25T08:14:14.655Z,1.90
2022-11-25T08:16:41.792Z,2.37
2022-11-25T08:19:13.426Z,1.47
2022-11-25T08:21:40.012Z,1.00
2022-11-25T08:24:06.775Z,3.63
2022-11-25T08:26:37.445Z,2.70
2022-11-25T08:29:06.367Z,1.63
2022-11-25T08:31:35.395Z,3.73
2022-11-25T08:34:02.629Z,2.90
2022-11-25T08:36:30.173Z,2.23
2022-11-25T08:38:59.677Z,2.23
2022-11-25T08:41:29.843Z,2.13
2022-11-25T08:43:57.951Z,2.30
2022-11-25T08:46:27.729Z,1.93
2022-11-25T08:48:54.451Z,1.57
2022-11-25T08:51:26.853Z,1.80
2022-11-25T08:53:53.461Z,2.37
2022-11-25T08:56:25.697Z,6.37
2022-11-25T08:58:54.103Z,12.30
2022-11-25T09:01:22.305Z,4.63
2022-11-25T09:03:51.873Z,13.80
2022-11-25T09:06:19.600Z,3.63
2022-11-25T09:08:46.811Z,4.70
2022-11-25T09:11:14.323Z,3.17
2022-11-25T09:13:40.981Z,4.00
2022-11-25T09:16:08.799Z,5.73
2022-11-25T09:18:36.964Z,4.00
2022-11-25T09:21:11.671Z,2.73
2022-11-25T09:23:39.211Z,4.20
2022-11-25T09:26:07.108Z,3.37
2022-11-25T09:28:34.092Z,6.00
2022-11-25T09:31:07.394Z,5.13
2022-11-25T09:33:34.036Z,7.87
2022-11-25T09:36:01.756Z,15.60
2022-11-25T09:38:28.296Z,5.83
2022-11-25T09:41:06.515Z,4.27
2022-11-25T09:44:22.861Z,2.93
2022-11-25T09:47:20.086Z,2.67
2022-11-25T09:50:16.566Z,3.43
2022-11-25T09:52:48.154Z,7.43
2022-11-25T09:55:18.748Z,3.10
2022-11-25T09:58:07.055Z,4.03
2022-11-25T10:00:45.662Z,5.90
2022-11-25T10:03:35.490Z,5.73
2022-11-25T10:06:16.044Z,1.70
2022-11-25T10:08:49.343Z,11.67
2022-11-25T10:11:24.402Z,9.40
2022-11-25T10:14:16.947Z,3.20
2022-11-25T10:17:12.435Z,2.77
2022-11-25T10:20:03.348Z,8.00
2022-11-25T10:22:36.295Z,4.50
2022-11-25T10:25:37.016Z,5.47
2022-11-25T10:28:22.110Z,6.60
2022-11-25T10:31:11.941Z,4.33
2022-11-25T10:33:47.688Z,4.10
2022-11-25T10:36:19.095Z,7.07
2022-11-25T10:38:46.038Z,1.67
2022-11-25T10:41:17.562Z,3.50
2022-11-25T10:43:46.524Z,8.47
2022-11-25T10:47:12.309Z,3.23
2022-11-25T10:49:34.759Z,3.60
2022-11-25T10:52:01.849Z,6.83
2022-11-25T10:54:29.239Z,4.20
2022-11-25T10:57:04.501Z,3.80
2022-11-25T10:59:38.075Z,2.77
2022-11-25T11:02:19.258Z,4.60
2022-11-25T11:05:00.275Z,5.77
2022-11-25T11:07:33.239Z,4.67
2022-11-25T11:10:15.206Z,5.10
2022-11-25T11:12:59.086Z,3.23
2022-11-25T11:15:47.168Z,3.87
2022-11-25T11:18:30.107Z,5.80
2022-11-25T11:20:59.244Z,3.83
2022-11-25T11:23:27.804Z,2.60
2022-11-25T11:25:58.008Z,3.27
2022-11-25T11:28:37.056Z,4.40
2022-11-25T11:31:25.036Z,5.53
2022-11-25T11:34:16.585Z,3.80
2022-11-25T11:37:11.155Z,3.47
2022-11-25T11:40:15.079Z,2.83
2022-11-25T11:43:05.651Z,4.13
2022-11-25T11:45:38.147Z,3.20
2022-11-25T11:48:17.433Z,3.00
2022-11-25T11:50:49.456Z,4.37
2022-11-25T11:53:34.101Z,5.13
2022-11-25T11:56:35.172Z,13.20
2022-11-25T11:59:07.932Z,26.27
2022-11-25T12:01:53.101Z,17.13
2022-11-25T12:04:34.946Z,29.47
2022-11-25T12:07:21.043Z,27.60
2022-11-25T12:09:57.658Z,31.00
2022-11-25T12:12:36.056Z,36.60
2022-11-25T12:15:35.331Z,46.27
2022-11-25T12:18:14.229Z,47.53
2022-11-25T12:20:59.377Z,33.73
2022-11-25T12:23:48.613Z,47.27
2022-11-25T12:26:24.236Z,35.43
2022-11-25T12:29:01.865Z,34.67
2022-11-25T12:31:38.016Z,35.13
2022-11-25T12:34:27.523Z,36.23
2022-11-25T12:37:03.910Z,34.63
2022-11-25T12:39:40.456Z,23.67
2022-11-25T12:42:16.595Z,31.07
2022-11-25T12:45:01.442Z,32.07
2022-11-25T12:47:28.210Z,41.60
2022-11-25T12:49:56.665Z,28.33
2022-11-25T12:52:51.875Z,44.00
2022-11-25T12:55:20.861Z,36.43
2022-11-25T12:58:00.759Z,35.20
2022-11-25T13:00:48.151Z,31.10
2022-11-25T13:03:43.000Z,29.37
2022-11-25T13:06:29.393Z,29.30
2022-11-25T13:09:16.646Z,28.17
2022-11-25T13:12:11.309Z,38.13
2022-11-25T13:15:13.405Z,27.77
2022-11-25T13:17:43.326Z,29.67
2022-11-25T13:20:33.547Z,32.90
2022-11-25T13:23:22.497Z,23.20
2022-11-25T13:25:51.059Z,25.93
2022-11-25T13:28:37.936Z,21.33
2022-11-25T13:31:33.592Z,32.47
2022-11-25T13:34:32.241Z,35.47
2022-11-25T13:37:00.893Z,26.80
2022-11-25T13:39:30.296Z,23.87
2022-11-25T13:42:24.428Z,35.67
2022-11-25T13:44:56.154Z,22.10
2022-11-25T13:47:24.595Z,24.97
2022-11-25T13:49:53.899Z,21.00
2022-11-25T13:52:43.124Z,29.67
2022-11-25T13:55:18.743Z,47.90
2022-11-25T13:57:48.326Z,58.20
2022-11-25T14:00:14.891Z,78.27
2022-11-25T14:02:46.464Z,223.47
2022-11-25T14:05:32.049Z,477.57
2022-11-25T14:08:13.721Z,539.70
2022-11-25T14:10:58.332Z,584.10
2022-11-25T14:13:37.068Z,567.47
2022-11-25T14:16:15.424Z,554.77
2022-11-25T14:19:50.189Z,543.60
2022-11-25T14:22:27.188Z,483.60
2022-11-25T14:25:00.505Z,465.23
2022-11-25T14:27:33.752Z,454.67
2022-11-25T14:30:09.131Z,440.43
2022-11-25T14:33:01.185Z,431.47
2022-11-25T14:35:34.325Z,423.20
2022-11-25T14:38:26.570Z,444.63
2022-11-25T14:40:57.898Z,439.77
2022-11-25T14:43:25.497Z,423.07
2022-11-25T14:46:15.897Z,403.90
2022-11-25T14:48:43.879Z,378.00
2022-11-25T14:51:13.710Z,348.87
2022-11-25T14:53:48.067Z,364.43
2022-11-25T14:56:26.896Z,353.67
2022-11-25T14:58:55.753Z,352.37
2022-11-25T15:01:26.688Z,343.10
2022-11-25T15:04:17.264Z,339.70
2022-11-25T15:06:53.005Z,268.43
2022-11-25T15:09:23.013Z,325.87
2022-11-25T15:12:17.841Z,319.93
2022-11-25T15:14:52.368Z,352.37
2022-11-25T15:17:30.333Z,331.17
2022-11-25T15:20:03.383Z,345.30
2022-11-25T15:22:30.130Z,308.60
2022-11-25T15:25:09.390Z,300.47
2022-11-25T15:27:49.154Z,302.20
2022-11-25T15:30:24.487Z,307.77
2022-11-25T15:32:51.832Z,315.30
2022-11-25T15:35:21.664Z,313.37
2022-11-25T15:37:49.120Z,301.53
2022-11-25T15:40:30.210Z,299.90
2022-11-25T15:42:59.317Z,281.90
2022-11-25T15:45:29.996Z,269.93
2022-11-25T15:47:56.939Z,281.70
2022-11-25T15:50:26.250Z,284.20
2022-11-25T15:52:55.725Z,276.90
2022-11-25T15:55:37.819Z,258.00
2022-11-25T15:58:12.749Z,265.60
2022-11-25T16:00:41.593Z,265.53
2022-11-25T16:03:21.460Z,284.73
2022-11-25T16:05:55.843Z,274.73
2022-11-25T16:08:31.564Z,271.50
2022-11-25T16:11:00.274Z,269.37
2022-11-25T16:13:28.864Z,279.27
2022-11-25T16:16:07.650Z,238.73
2022-11-25T16:18:57.690Z,259.37
2022-11-25T16:21:27.252Z,252.27
2022-11-25T16:23:59.755Z,236.13
2022-11-25T16:26:31.748Z,258.03
2022-11-25T16:29:00.655Z,258.30
2022-11-25T16:31:28.571Z,237.93
2022-11-25T16:34:00.318Z,224.37
2022-11-25T16:36:26.904Z,229.30
2022-11-25T16:38:54.376Z,225.13
2022-11-25T16:41:25.042Z,223.50
2022-11-25T16:43:51.738Z,234.43
2022-11-25T16:46:19.696Z,220.90
2022-11-25T16:48:47.262Z,218.77
2022-11-25T16:51:16.759Z,205.67
2022-11-25T16:53:44.319Z,232.83
2022-11-25T16:56:23.759Z,221.07
2022-11-25T16:58:50.458Z,196.37
2022-11-25T17:01:19.689Z,201.77
2022-11-25T17:03:46.325Z,203.67
2022-11-25T17:06:21.934Z,203.47
2022-11-25T17:08:50.062Z,180.80
2022-11-25T17:11:29.897Z,188.57
2022-11-25T17:14:01.343Z,188.10
2022-11-25T17:16:29.546Z,191.80
2022-11-25T17:18:59.336Z,168.67
2022-11-25T17:21:34.744Z,188.70
2022-11-25T17:24:10.875Z,180.20
2022-11-25T17:26:40.009Z,191.97
2022-11-25T17:29:11.951Z,167.43
2022-11-25T17:31:38.918Z,181.83
2022-11-25T17:34:05.537Z,169.87
2022-11-25T17:36:32.136Z,170.83
2022-11-25T17:38:58.708Z,168.30
2022-11-25T17:41:26.785Z,157.60
2022-11-25T17:43:53.959Z,166.93
2022-11-25T17:46:21.037Z,153.03
2022-11-25T17:48:47.661Z,133.40
2022-11-25T17:51:14.838Z,162.57
2022-11-25T17:53:41.952Z,146.83
2022-11-25T17:56:25.758Z,158.93
2022-11-25T17:58:52.707Z,135.33
2022-11-25T18:01:19.404Z,132.97
2022-11-25T18:03:46.055Z,138.73
2022-11-25T18:06:12.614Z,130.90
2022-11-25T18:08:39.190Z,144.33
2022-11-25T18:11:07.223Z,126.57
2022-11-25T18:13:39.524Z,131.10
2022-11-25T18:16:07.855Z,148.07
2022-11-25T18:18:34.701Z,129.97
2022-11-25T18:21:01.781Z,132.77
2022-11-25T18:23:28.366Z,123.13
2022-11-25T18:25:58.047Z,151.87
2022-11-25T18:28:26.431Z,130.90
2022-11-25T18:30:56.904Z,118.40
2022-11-25T18:33:23.491Z,128.30
2022-11-25T18:35:50.061Z,117.63
2022-11-25T18:38:16.695Z,121.33
2022-11-25T18:40:48.796Z,120.80
2022-11-25T18:43:23.179Z,131.97
2022-11-25T18:45:49.827Z,116.80
2022-11-25T18:48:24.630Z,109.73
2022-11-25T18:50:54.897Z,109.73
2022-11-25T18:53:22.356Z,113.27
2022-11-25T18:55:49.983Z,109.50
2022-11-25T18:58:19.580Z,95.63
2022-11-25T19:00:50.784Z,101.63
2022-11-25T19:03:26.731Z,100.27
2022-11-25T19:05:59.277Z,105.03
2022-11-25T19:08:25.837Z,111.20
2022-11-25T19:10:52.914Z,94.20
2022-11-25T19:13:29.884Z,101.53
2022-11-25T19:16:02.145Z,86.27
2022-11-25T19:18:28.761Z,86.57
2022-11-25T19:20:55.465Z,92.20
2022-11-25T19:23:27.961Z,96.50
2022-11-25T19:25:59.700Z,94.70
2022-11-25T19:28:26.892Z,95.73
2022-11-25T19:30:59.210Z,89.97
2022-11-25T19:33:31.690Z,89.87
2022-11-25T19:35:58.405Z,93.00
2022-11-25T19:38:25.959Z,85.37
2022-11-25T19:40:53.397Z,79.10
2022-11-25T19:43:20.440Z,87.47
2022-11-25T19:45:47.221Z,83.37
2022-11-25T19:48:17.903Z,85.97
2022-11-25T19:50:47.094Z,82.43
2022-11-25T19:53:19.470Z,94.40
2022-11-25T19:55:46.862Z,73.30
2022-11-25T19:58:14.546Z,81.23
2022-11-25T20:00:43.514Z,61.30
2022-11-25T20:03:18.976Z,67.23
2022-11-25T20:05:45.970Z,79.97
2022-11-25T20:08:18.494Z,79.07
2022-11-25T20:10:45.557Z,74.13
2022-11-25T20:13:12.315Z,70.20
2022-11-25T20:15:40.188Z,79.47
2022-11-25T20:18:07.521Z,72.73
2022-11-25T20:20:36.141Z,64.37
2022-11-25T20:23:12.336Z,66.77
2022-11-25T20:25:44.775Z,60.00
2022-11-25T20:28:17.424Z,66.23
2022-11-25T20:30:44.914Z,63.30
2022-11-25T20:33:12.109Z,66.43
2022-11-25T20:35:40.212Z,69.53
2022-11-25T20:38:31.056Z,68.80
2022-11-25T20:40:59.551Z,68.77
2022-11-25T20:43:30.751Z,64.63
2022-11-25T20:45:59.322Z,57.43
2022-11-25T20:48:26.843Z,63.40
2022-11-25T20:50:53.649Z,59.10
2022-11-25T20:53:22.095Z,53.77
2022-11-25T20:55:49.547Z,60.17
2022-11-25T20:58:28.528Z,51.53
2022-11-25T21:00:57.817Z,51.70
2022-11-25T21:03:25.535Z,42.87
2022-11-25T21:05:53.528Z,58.83
2022-11-25T21:08:23.091Z,58.57
2022-11-25T21:10:55.427Z,54.27
2022-11-25T21:13:27.587Z,51.83
2022-11-25T21:15:54.388Z,47.43
2022-11-25T21:18:21.787Z,53.87
2022-11-25T21:20:51.041Z,48.37
2022-11-25T21:23:24.423Z,52.40
2022-11-25T21:25:51.364Z,50.33
2022-11-25T21:28:21.095Z,41.03
2022-11-25T21:30:48.429Z,50.30
2022-11-25T21:33:15.600Z,51.20
2022-11-25T21:35:45.196Z,45.73
2022-11-25T21:38:16.712Z,41.80
2022-11-25T21:40:48.317Z,18.30
2022-11-25T21:43:21.701Z,14.27
2022-11-25T21:45:52.078Z,12.67
2022-11-25T21:48:20.749Z,23.70
2022-11-25T21:50:47.500Z,18.40
2022-11-25T21:53:14.316Z,13.00
2022-11-25T21:55:41.479Z,14.03
2022-11-25T21:58:21.255Z,16.17
2022-11-25T22:00:51.193Z,15.93
2022-11-25T22:03:19.772Z,16.50
2022-11-25T22:05:47.337Z,21.30
2022-11-25T22:08:13.976Z,18.50
2022-11-25T22:10:51.224Z,18.43
2022-11-25T22:13:31.252Z,16.03
2022-11-25T22:15:59.139Z,20.73
2022-11-25T22:18:32.543Z,19.80
2022-11-25T22:20:59.689Z,16.30
2022-11-25T22:23:26.544Z,18.63
2022-11-25T22:25:53.771Z,15.37
2022-11-25T22:28:22.962Z,17.30
2022-11-25T22:30:54.775Z,13.73
2022-11-25T22:33:33.505Z,18.60
2022-11-25T22:36:00.707Z,16.60
2022-11-25T22:38:28.871Z,16.20
2022-11-25T22:41:04.835Z,16.77
2022-11-25T22:43:35.142Z,13.93
2022-11-25T22:46:03.748Z,9.63
2022-11-25T22:48:34.660Z,12.30
2022-11-25T22:51:03.747Z,12.20
2022-11-25T22:53:30.552Z,16.07
2022-11-25T22:55:58.103Z,16.27
2022-11-25T22:58:26.171Z,13.47
2022-11-25T23:00:54.027Z,14.63
2022-11-25T23:03:29.533Z,14.73
2022-11-25T23:05:56.868Z,15.83
2022-11-25T23:08:27.713Z,14.37
2022-11-25T23:10:55.373Z,20.10
2022-11-25T23:13:22.080Z,17.83
2022-11-25T23:15:53.782Z,14.20
2022-11-25T23:18:26.134Z,15.40
2022-11-25T23:20:53.617Z,13.50
2022-11-25T23:23:23.383Z,13.97
2022-11-25T23:25:50.101Z,15.70
2022-11-25T23:28:17.297Z,10.80
2022-11-25T23:30:49.940Z,17.53
2022-11-25T23:33:27.465Z,11.90
2022-11-25T23:35:54.211Z,14.20
2022-11-25T23:38:24.253Z,14.10
2022-11-25T23:40:50.966Z,12.80
2022-11-25T23:43:17.932Z,11.60
2022-11-25T23:45:53.263Z,10.40
2022-11-25T23:48:24.045Z,11.20
2022-11-25T23:50:53.840Z,11.90
2022-11-25T23:53:30.065Z,11.90
2022-11-25T23:55:56.711Z,11.13
2022-11-25T23:58:23.755Z,12.73
